createdAt,value
2017-12-09T00:00:56.656Z,1.5
2017-12-09T00:01:58.255Z,1.6
2017-12-09T00:02:59.857Z,1.5
2017-12-09T00:04:01.459Z,1.5
2017-12-09T00:05:03.061Z,1.5
2017-12-09T00:06:04.658Z,1.6
2017-12-09T00:07:06.295Z,1.6
2017-12-09T00:08:07.859Z,1.5
2017-12-09T00:09:09.449Z,1.5
2017-12-09T00:10:11.057Z,1.5
2017-12-09T00:11:12.657Z,1.5
2017-12-09T00:12:14.252Z,1.5
2017-12-09T00:13:15.851Z,1.5
2017-12-09T00:14:17.453Z,1.5
2017-12-09T00:15:19.053Z,1.5
2017-12-09T00:16:20.652Z,1.6
2017-12-09T00:17:22.260Z,1.5
2017-12-09T00:18:23.855Z,1.5
2017-12-09T00:19:25.449Z,1.5
2017-12-09T00:20:27.052Z,1.5
2017-12-09T00:21:28.650Z,1.5
2017-12-09T00:22:30.254Z,1.6
2017-12-09T00:23:31.852Z,1.6
2017-12-09T00:24:33.456Z,1.5
2017-12-09T00:25:35.058Z,1.6
2017-12-09T00:26:36.654Z,1.6
2017-12-09T00:27:38.255Z,1.5
2017-12-09T00:28:39.857Z,1.6
2017-12-09T00:29:41.461Z,1.6
2017-12-09T00:30:43.064Z,1.5
2017-12-09T00:31:44.669Z,1.5
2017-12-09T00:32:46.286Z,1.6
2017-12-09T00:33:47.875Z,1.6
2017-12-09T00:34:49.467Z,1.6
2017-12-09T00:35:51.073Z,1.6
2017-12-09T00:36:52.671Z,1.6
2017-12-09T00:37:54.276Z,1.6
2017-12-09T00:38:55.874Z,1.6
2017-12-09T00:39:57.487Z,1.6
2017-12-09T00:40:59.077Z,1.6
2017-12-09T00:42:00.683Z,1.6
2017-12-09T00:43:02.279Z,1.6
2017-12-09T00:44:03.882Z,1.5
2017-12-09T00:45:05.483Z,1.6
2017-12-09T00:46:07.097Z,1.5
2017-12-09T00:47:08.700Z,1.6
2017-12-09T00:48:10.297Z,1.5
2017-12-09T00:49:11.898Z,1.5
2017-12-09T00:50:13.501Z,1.5
2017-12-09T00:51:15.098Z,1.5
2017-12-09T00:52:16.698Z,1.5
2017-12-09T00:53:18.304Z,1.5
2017-12-09T00:54:19.908Z,1.5
2017-12-09T00:55:21.504Z,1.5
2017-12-09T00:56:23.104Z,1.5
2017-12-09T00:57:24.707Z,1.5
2017-12-09T00:58:26.309Z,1.5
2017-12-09T00:59:27.910Z,1.4
2017-12-09T01:00:29.516Z,1.5
2017-12-09T01:01:31.120Z,1.5
2017-12-09T01:02:32.714Z,1.4
2017-12-09T01:03:34.313Z,1.5
2017-12-09T01:04:35.925Z,1.4
2017-12-09T01:05:37.514Z,1.5
2017-12-09T01:06:39.120Z,1.5
2017-12-09T01:07:40.725Z,1.5
2017-12-09T01:08:42.324Z,1.5
2017-12-09T01:09:43.925Z,1.5
2017-12-09T01:10:45.530Z,1.4
2017-12-09T01:11:47.125Z,1.5
2017-12-09T01:12:48.731Z,1.5
2017-12-09T01:13:50.328Z,1.5
2017-12-09T01:14:51.934Z,1.5
2017-12-09T01:15:53.566Z,1.5
2017-12-09T01:16:55.142Z,1.5
2017-12-09T01:17:56.738Z,1.5
2017-12-09T01:18:58.338Z,1.5
2017-12-09T01:19:59.943Z,1.5
2017-12-09T01:21:01.548Z,1.5
2017-12-09T01:22:03.150Z,1.5
2017-12-09T01:23:04.746Z,1.5
2017-12-09T01:24:06.348Z,1.5
2017-12-09T01:25:07.950Z,1.5
2017-12-09T01:26:09.549Z,1.5
2017-12-09T01:27:11.151Z,1.5
2017-12-09T01:28:12.770Z,1.5
2017-12-09T01:29:14.378Z,1.5
2017-12-09T01:30:15.978Z,1.5
2017-12-09T01:31:17.579Z,1.5
2017-12-09T01:32:19.177Z,1.5
2017-12-09T01:33:20.775Z,1.5
2017-12-09T01:34:22.380Z,1.5
2017-12-09T01:35:23.986Z,1.5
2017-12-09T01:36:25.586Z,1.5
2017-12-09T01:37:27.189Z,1.4
2017-12-09T01:38:28.788Z,1.5
2017-12-09T01:39:30.388Z,1.5
2017-12-09T01:40:31.992Z,1.5
2017-12-09T01:41:33.594Z,1.5
2017-12-09T01:42:35.193Z,1.5
2017-12-09T01:43:36.794Z,1.5
2017-12-09T01:44:38.401Z,1.5
2017-12-09T01:45:40.001Z,1.5
2017-12-09T01:46:41.599Z,1.5
2017-12-09T01:47:43.199Z,1.5
2017-12-09T01:48:44.807Z,1.5
2017-12-09T01:49:46.405Z,1.5
2017-12-09T01:50:48.012Z,1.5
2017-12-09T01:51:49.608Z,1.5
2017-12-09T01:52:51.212Z,1.5
2017-12-09T01:53:52.809Z,1.5
2017-12-09T01:54:54.416Z,1.5
2017-12-09T01:55:56.016Z,1.5
2017-12-09T01:56:57.621Z,1.5
2017-12-09T01:57:59.220Z,1.5
2017-12-09T01:59:00.826Z,1.5
2017-12-09T02:00:02.420Z,1.5
2017-12-09T02:01:04.027Z,1.5
2017-12-09T02:02:05.625Z,1.5
2017-12-09T02:03:07.230Z,1.5
2017-12-09T02:04:08.831Z,1.5
2017-12-09T02:05:10.431Z,1.5
2017-12-09T02:06:12.032Z,1.5
2017-12-09T02:07:13.636Z,1.6
2017-12-09T02:08:15.239Z,1.5
2017-12-09T02:09:16.838Z,1.5
2017-12-09T02:10:18.435Z,1.6
2017-12-09T02:11:20.041Z,1.5
2017-12-09T02:12:21.639Z,1.5
2017-12-09T02:13:23.247Z,1.6
2017-12-09T02:14:24.840Z,1.5
2017-12-09T02:15:26.452Z,1.5
2017-12-09T02:16:28.043Z,1.5
2017-12-09T02:17:29.649Z,1.6
2017-12-09T02:18:31.247Z,1.5
2017-12-09T02:19:32.855Z,1.5
2017-12-09T02:20:34.461Z,1.5
2017-12-09T02:21:36.061Z,1.5
2017-12-09T02:22:37.659Z,1.5
2017-12-09T02:23:39.268Z,1.5
2017-12-09T02:24:40.869Z,1.5
2017-12-09T02:25:42.465Z,1.5
2017-12-09T02:26:44.066Z,1.5
2017-12-09T02:27:45.671Z,1.5
2017-12-09T02:28:47.272Z,1.4
2017-12-09T02:29:48.870Z,1.3
2017-12-09T02:30:50.471Z,1.3
2017-12-09T02:31:52.072Z,1.3
2017-12-09T02:32:53.675Z,1.2
2017-12-09T02:33:55.281Z,1.2
2017-12-09T02:34:56.882Z,1.1
2017-12-09T02:35:58.478Z,1.2
2017-12-09T02:37:00.077Z,1.1
2017-12-09T02:38:01.683Z,1.2
2017-12-09T02:39:03.280Z,1.2
2017-12-09T02:40:04.886Z,1.2
2017-12-09T02:41:06.485Z,1.1
2017-12-09T02:42:08.094Z,1.1
2017-12-09T02:43:09.688Z,1.1
2017-12-09T02:44:11.296Z,1.0
2017-12-09T02:45:12.894Z,1.0
2017-12-09T02:46:14.495Z,1.1
2017-12-09T02:47:16.092Z,1.0
2017-12-09T02:48:17.699Z,1.0
2017-12-09T02:49:19.304Z,1.0
2017-12-09T02:50:20.895Z,0.9
2017-12-09T02:51:22.500Z,0.9
2017-12-09T02:52:24.100Z,0.9
2017-12-09T02:53:25.702Z,0.9
2017-12-09T02:54:27.302Z,0.9
2017-12-09T02:55:28.909Z,0.8
2017-12-09T02:56:30.509Z,0.9
2017-12-09T02:57:32.111Z,0.9
2017-12-09T02:58:33.708Z,0.8
2017-12-09T02:59:35.312Z,0.8
2017-12-09T03:00:36.912Z,0.9
2017-12-09T03:01:38.510Z,1.0
2017-12-09T03:02:40.118Z,1.0
2017-12-09T03:03:41.722Z,1.0
2017-12-09T03:04:43.323Z,1.0
2017-12-09T03:05:44.922Z,1.0
2017-12-09T03:06:46.525Z,0.9
2017-12-09T03:07:48.170Z,1.0
2017-12-09T03:08:49.726Z,1.0
2017-12-09T03:09:51.331Z,1.0
2017-12-09T03:10:52.930Z,1.0
2017-12-09T03:11:54.527Z,1.0
2017-12-09T03:12:56.132Z,1.1
2017-12-09T03:13:57.734Z,1.1
2017-12-09T03:14:59.333Z,1.1
2017-12-09T03:16:00.930Z,1.1
2017-12-09T03:17:02.543Z,1.1
2017-12-09T03:18:04.142Z,1.1
2017-12-09T03:19:05.737Z,1.1
2017-12-09T03:20:07.334Z,1.1
2017-12-09T03:21:08.941Z,1.1
2017-12-09T03:22:10.539Z,1.1
2017-12-09T03:23:12.136Z,1.0
2017-12-09T03:24:13.738Z,1.1
2017-12-09T03:25:15.344Z,1.1
2017-12-09T03:26:16.940Z,1.0
2017-12-09T03:27:18.544Z,1.0
2017-12-09T03:28:20.143Z,1.0
2017-12-09T03:29:21.745Z,1.0
2017-12-09T03:30:23.343Z,1.0
2017-12-09T03:31:24.943Z,1.0
2017-12-09T03:32:26.547Z,0.9
2017-12-09T03:33:28.143Z,0.9
2017-12-09T03:34:29.745Z,1.0
2017-12-09T03:35:31.339Z,0.9
2017-12-09T03:36:32.943Z,1.0
2017-12-09T03:37:34.540Z,1.0
2017-12-09T03:38:36.151Z,0.9
2017-12-09T03:39:37.743Z,0.9
2017-12-09T03:40:39.344Z,0.8
2017-12-09T03:41:40.941Z,0.9
2017-12-09T03:42:42.540Z,0.9
2017-12-09T03:43:44.141Z,0.9
2017-12-09T03:44:45.738Z,0.9
2017-12-09T03:45:47.339Z,0.9
2017-12-09T03:46:48.946Z,0.9
2017-12-09T03:47:50.538Z,0.8
2017-12-09T03:48:52.139Z,0.7
2017-12-09T03:49:53.736Z,0.8
2017-12-09T03:50:55.336Z,0.8
2017-12-09T03:51:56.940Z,0.7
2017-12-09T03:52:58.538Z,0.7
2017-12-09T03:54:00.142Z,0.9
2017-12-09T03:55:01.738Z,0.8
2017-12-09T03:56:03.340Z,0.9
2017-12-09T03:57:04.940Z,0.9
2017-12-09T03:58:06.582Z,0.9
2017-12-09T03:59:08.144Z,0.9
2017-12-09T04:00:09.743Z,1.0
2017-12-09T04:01:11.346Z,1.0
2017-12-09T04:02:12.948Z,1.0
2017-12-09T04:03:14.549Z,1.0
2017-12-09T04:04:16.154Z,1.1
2017-12-09T04:05:17.755Z,1.0
2017-12-09T04:06:19.352Z,1.0
2017-12-09T04:07:20.970Z,1.0
2017-12-09T04:08:22.572Z,0.9
2017-12-09T04:09:24.176Z,1.0
2017-12-09T04:10:25.774Z,1.0
2017-12-09T04:11:27.377Z,0.9
2017-12-09T04:12:28.970Z,0.8
2017-12-09T04:13:30.571Z,1.0
2017-12-09T04:14:32.177Z,1.0
2017-12-09T04:15:33.777Z,0.9
2017-12-09T04:16:35.379Z,0.9
2017-12-09T04:17:36.982Z,0.9
2017-12-09T04:18:38.582Z,0.9
2017-12-09T04:19:40.182Z,0.9
2017-12-09T04:20:41.782Z,0.9
2017-12-09T04:21:43.388Z,0.8
2017-12-09T04:22:44.987Z,0.9
2017-12-09T04:23:46.590Z,0.9
2017-12-09T04:24:48.183Z,0.9
2017-12-09T04:25:49.787Z,0.8
2017-12-09T04:26:51.385Z,0.9
2017-12-09T04:27:52.992Z,0.9
2017-12-09T04:28:54.591Z,0.8
2017-12-09T04:29:56.197Z,0.8
2017-12-09T04:30:57.792Z,0.9
2017-12-09T04:31:59.391Z,0.8
2017-12-09T04:33:00.988Z,0.9
2017-12-09T04:34:02.587Z,0.9
2017-12-09T04:35:04.194Z,0.9
2017-12-09T04:36:05.857Z,0.9
2017-12-09T04:37:07.400Z,0.9
2017-12-09T04:38:09.002Z,0.9
2017-12-09T04:39:10.605Z,0.9
2017-12-09T04:40:12.203Z,0.9
2017-12-09T04:41:13.807Z,0.9
2017-12-09T04:42:15.405Z,0.8
2017-12-09T04:43:17.009Z,0.9
2017-12-09T04:44:18.609Z,0.9
2017-12-09T04:45:20.210Z,0.9
2017-12-09T04:46:21.811Z,0.7
2017-12-09T04:47:23.409Z,0.8
2017-12-09T04:48:25.010Z,0.8
2017-12-09T04:49:26.609Z,0.9
2017-12-09T04:50:28.210Z,0.9
2017-12-09T04:51:29.810Z,0.8
2017-12-09T04:52:31.412Z,0.8
2017-12-09T04:53:33.010Z,0.8
2017-12-09T04:54:34.607Z,0.9
2017-12-09T04:55:36.215Z,0.8
2017-12-09T04:56:37.817Z,0.8
2017-12-09T04:57:39.413Z,0.8
2017-12-09T04:58:41.013Z,0.8
2017-12-09T04:59:42.614Z,0.7
2017-12-09T05:00:44.214Z,0.8
2017-12-09T05:01:45.816Z,0.9
2017-12-09T05:02:47.407Z,0.8
2017-12-09T05:03:49.020Z,0.9
2017-12-09T05:04:50.611Z,0.7
2017-12-09T05:05:52.209Z,0.8
2017-12-09T05:06:53.812Z,0.8
2017-12-09T05:07:55.414Z,0.9
2017-12-09T05:08:57.018Z,0.9
2017-12-09T05:09:58.618Z,0.8
2017-12-09T05:11:00.220Z,1.0
2017-12-09T05:12:01.822Z,1.0
2017-12-09T05:13:03.423Z,1.1
2017-12-09T05:14:05.026Z,1.0
2017-12-09T05:15:06.626Z,1.0
2017-12-09T05:16:08.229Z,1.0
2017-12-09T05:17:09.819Z,1.0
2017-12-09T05:18:11.423Z,1.0
2017-12-09T05:19:13.026Z,0.9
2017-12-09T05:20:14.623Z,0.9
2017-12-09T05:21:16.226Z,1.0
2017-12-09T05:22:17.830Z,1.0
2017-12-09T05:23:19.429Z,1.0
2017-12-09T05:24:21.030Z,1.0
2017-12-09T05:25:22.629Z,1.0
2017-12-09T05:26:24.229Z,1.0
2017-12-09T05:27:25.834Z,1.0
2017-12-09T05:28:27.431Z,1.1
2017-12-09T05:29:29.036Z,1.2
2017-12-09T05:30:30.633Z,1.1
2017-12-09T05:31:32.239Z,1.1
2017-12-09T05:32:33.838Z,1.0
2017-12-09T05:33:35.443Z,1.0
2017-12-09T05:34:37.038Z,1.0
2017-12-09T05:35:38.644Z,1.0
2017-12-09T05:36:40.239Z,1.0
2017-12-09T05:37:41.849Z,1.0
2017-12-09T05:38:43.444Z,1.0
2017-12-09T05:39:45.044Z,1.0
2017-12-09T05:40:46.710Z,1.0
2017-12-09T05:41:48.250Z,1.0
2017-12-09T05:42:49.850Z,1.0
2017-12-09T05:43:51.446Z,1.0
2017-12-09T05:44:53.050Z,1.0
2017-12-09T05:45:54.666Z,1.0
2017-12-09T05:46:56.262Z,1.0
2017-12-09T05:47:57.864Z,1.0
2017-12-09T05:48:59.466Z,1.1
2017-12-09T05:50:01.066Z,1.1
2017-12-09T05:51:02.661Z,1.2
2017-12-09T05:52:04.261Z,1.1
2017-12-09T05:53:05.866Z,1.0
2017-12-09T05:54:07.461Z,1.0
2017-12-09T05:55:09.069Z,1.0
2017-12-09T05:56:10.671Z,1.0
2017-12-09T05:57:12.339Z,1.0
2017-12-09T05:58:13.937Z,1.0
2017-12-09T05:59:15.540Z,1.1
2017-12-09T06:00:17.141Z,1.0
2017-12-09T06:01:18.738Z,1.1
2017-12-09T06:02:20.343Z,1.1
2017-12-09T06:03:21.941Z,1.1
2017-12-09T06:04:23.545Z,1.1
2017-12-09T06:05:25.144Z,1.1
2017-12-09T06:06:26.744Z,1.1
2017-12-09T06:07:28.345Z,1.1
2017-12-09T06:08:29.944Z,1.1
2017-12-09T06:09:31.548Z,1.2
2017-12-09T06:10:33.148Z,1.1
2017-12-09T06:11:34.748Z,1.1
2017-12-09T06:12:36.344Z,1.1
2017-12-09T06:13:37.949Z,1.2
2017-12-09T06:14:39.547Z,1.1
2017-12-09T06:15:41.153Z,1.2
2017-12-09T06:16:42.751Z,1.2
2017-12-09T06:17:44.357Z,1.2
2017-12-09T06:18:45.954Z,1.5
2017-12-09T06:19:47.558Z,1.4
2017-12-09T06:20:49.156Z,1.3
2017-12-09T06:21:50.759Z,1.2
2017-12-09T06:22:52.357Z,1.3
2017-12-09T06:23:53.964Z,1.2
2017-12-09T06:24:55.564Z,1.3
2017-12-09T06:25:57.166Z,1.3
2017-12-09T06:26:58.767Z,1.3
2017-12-09T06:28:00.362Z,1.2
2017-12-09T06:29:01.970Z,1.3
2017-12-09T06:30:03.570Z,1.3
2017-12-09T06:31:05.173Z,1.3
2017-12-09T06:32:06.772Z,1.1
2017-12-09T06:33:08.375Z,1.2
2017-12-09T06:34:09.970Z,1.2
2017-12-09T06:35:11.574Z,1.2
2017-12-09T06:36:13.171Z,1.1
2017-12-09T06:37:14.776Z,1.2
2017-12-09T06:38:16.373Z,1.3
2017-12-09T06:39:17.982Z,1.3
2017-12-09T06:40:19.585Z,1.4
2017-12-09T06:41:21.193Z,1.3
2017-12-09T06:42:22.791Z,1.3
2017-12-09T06:43:24.395Z,1.4
2017-12-09T06:44:26.005Z,1.4
2017-12-09T06:45:27.610Z,1.3
2017-12-09T06:46:29.212Z,1.3
2017-12-09T06:47:30.814Z,1.3
2017-12-09T06:48:34.475Z,1.3
2017-12-09T06:49:39.706Z,1.3
2017-12-09T06:50:41.291Z,1.3
2017-12-09T06:51:42.895Z,1.3
2017-12-09T06:52:44.492Z,1.2
2017-12-09T06:53:46.094Z,1.3
2017-12-09T06:54:47.699Z,1.2
2017-12-09T06:55:49.301Z,1.3
2017-12-09T06:56:50.890Z,1.1
2017-12-09T06:57:52.487Z,1.1
2017-12-09T06:58:54.091Z,1.1
2017-12-09T06:59:55.711Z,1.1
2017-12-09T07:00:57.285Z,1.0
2017-12-09T07:01:58.883Z,1.1
2017-12-09T07:03:00.486Z,1.0
2017-12-09T07:04:02.091Z,1.1
2017-12-09T07:05:03.689Z,1.0
2017-12-09T07:06:05.299Z,1.0
2017-12-09T07:07:06.903Z,0.9
2017-12-09T07:08:08.505Z,0.9
2017-12-09T07:09:10.101Z,1.0
2017-12-09T07:10:11.716Z,1.0
2017-12-09T07:11:13.340Z,1.0
2017-12-09T07:12:14.945Z,1.0
2017-12-09T07:13:16.556Z,1.0
2017-12-09T07:14:18.117Z,0.9
2017-12-09T07:15:19.723Z,0.9
2017-12-09T07:16:21.325Z,0.9
2017-12-09T07:17:22.923Z,0.9
2017-12-09T07:18:24.522Z,0.9
2017-12-09T07:19:26.129Z,0.9
2017-12-09T07:20:27.744Z,0.9
2017-12-09T07:21:29.358Z,1.0
2017-12-09T07:22:30.959Z,0.9
2017-12-09T07:23:32.562Z,1.0
2017-12-09T07:24:34.204Z,1.0
2017-12-09T07:25:35.810Z,1.0
2017-12-09T07:26:37.404Z,1.0
2017-12-09T07:27:39.011Z,1.0
2017-12-09T07:28:40.610Z,1.0
2017-12-09T07:29:42.220Z,1.0
2017-12-09T07:30:43.817Z,1.0
2017-12-09T07:31:45.422Z,1.0
2017-12-09T07:32:47.022Z,1.1
2017-12-09T07:33:48.628Z,1.0
2017-12-09T07:34:50.226Z,1.0
2017-12-09T07:35:51.833Z,1.1
2017-12-09T07:36:53.432Z,1.1
2017-12-09T07:37:55.056Z,1.0
2017-12-09T07:38:56.655Z,1.1
2017-12-09T07:39:58.262Z,1.1
2017-12-09T07:40:59.867Z,1.1
2017-12-09T07:42:01.473Z,1.2
2017-12-09T07:43:03.071Z,1.3
2017-12-09T07:44:04.679Z,1.3
2017-12-09T07:45:06.277Z,1.3
2017-12-09T07:46:07.881Z,1.3
2017-12-09T07:47:09.487Z,1.3
2017-12-09T07:48:11.110Z,1.3
2017-12-09T07:49:12.718Z,1.3
2017-12-09T07:50:14.319Z,1.2
2017-12-09T07:51:15.919Z,1.3
2017-12-09T07:52:17.525Z,1.3
2017-12-09T07:53:19.148Z,1.2
2017-12-09T07:54:20.747Z,1.2
2017-12-09T07:55:22.356Z,1.3
2017-12-09T07:56:23.961Z,1.2
2017-12-09T07:57:25.564Z,1.3
2017-12-09T07:58:27.165Z,1.3
2017-12-09T07:59:28.766Z,1.3
2017-12-09T08:00:30.369Z,1.2
2017-12-09T08:01:31.974Z,1.2
2017-12-09T08:02:35.145Z,1.2
2017-12-09T08:03:38.390Z,1.3
2017-12-09T08:04:39.954Z,1.3
2017-12-09T08:05:41.554Z,1.3
2017-12-09T08:06:43.162Z,1.2
2017-12-09T08:07:48.913Z,1.3
2017-12-09T08:08:53.575Z,1.2
2017-12-09T08:09:55.134Z,1.2
2017-12-09T08:10:56.997Z,1.3
2017-12-09T08:11:58.605Z,1.2
2017-12-09T08:13:00.204Z,1.2
2017-12-09T08:14:01.806Z,1.2
2017-12-09T08:15:03.415Z,1.2
2017-12-09T08:16:05.013Z,1.2
2017-12-09T08:17:06.694Z,1.2
2017-12-09T08:18:09.802Z,1.2
2017-12-09T08:19:11.370Z,1.3
2017-12-09T08:20:13.297Z,1.2
2017-12-09T08:21:14.900Z,1.1
2017-12-09T08:22:16.500Z,1.2
2017-12-09T08:23:18.104Z,1.1
2017-12-09T08:24:19.709Z,1.2
2017-12-09T08:25:21.331Z,1.1
2017-12-09T08:26:22.946Z,1.3
2017-12-09T08:27:24.563Z,1.3
2017-12-09T08:28:26.170Z,1.3
2017-12-09T08:29:27.770Z,1.3
2017-12-09T08:30:29.371Z,1.3
2017-12-09T08:31:30.994Z,1.3
2017-12-09T08:32:32.600Z,1.3
2017-12-09T08:33:34.200Z,1.3
2017-12-09T08:34:35.804Z,1.2
2017-12-09T08:35:37.404Z,1.3
2017-12-09T08:36:39.005Z,1.3
2017-12-09T08:37:50.966Z,1.4
2017-12-09T08:39:00.101Z,1.3
2017-12-09T08:40:15.099Z,1.2
2017-12-09T08:41:15.807Z,1.3
2017-12-09T08:42:17.415Z,1.3
2017-12-09T08:43:19.016Z,1.3
2017-12-09T08:44:20.615Z,1.3
2017-12-09T08:45:22.361Z,1.3
2017-12-09T08:46:23.972Z,1.3
2017-12-09T08:47:27.803Z,1.3
2017-12-09T08:48:38.487Z,1.3
2017-12-09T08:49:49.992Z,1.3
2017-12-09T08:50:53.258Z,1.3
2017-12-09T11:27:59.094Z,2.4
2017-12-09T17:11:41.458Z,2.3
2017-12-09T17:12:43.057Z,2.4
2017-12-09T17:14:34.727Z,2.4
2017-12-09T17:15:36.329Z,2.4
2017-12-09T17:17:28.021Z,2.4
2017-12-09T17:18:29.622Z,2.4
2017-12-09T17:20:21.305Z,2.4
2017-12-09T17:21:22.900Z,2.5
2017-12-09T17:23:14.603Z,2.3
2017-12-09T17:24:16.200Z,2.4
2017-12-09T17:26:07.878Z,2.4
2017-12-09T17:27:09.475Z,2.4
2017-12-09T17:29:01.170Z,2.4
2017-12-09T17:30:02.771Z,2.4
2017-12-09T17:31:54.446Z,2.4
2017-12-09T17:32:56.043Z,2.5
2017-12-09T17:34:47.737Z,2.5
2017-12-09T17:35:49.337Z,2.4
2017-12-09T17:37:42.345Z,2.4
2017-12-09T17:38:43.950Z,2.4
2017-12-09T17:39:45.546Z,2.4
2017-12-09T17:40:47.145Z,2.4
2017-12-09T17:41:48.743Z,2.4
2017-12-09T17:42:50.366Z,2.3
2017-12-09T17:43:51.950Z,2.3
2017-12-09T17:44:53.556Z,2.3
2017-12-09T17:45:55.150Z,2.3
2017-12-09T17:46:56.752Z,2.3
2017-12-09T17:47:58.353Z,2.3
2017-12-09T17:48:59.958Z,2.3
2017-12-09T17:50:01.559Z,2.3
2017-12-09T17:51:03.159Z,2.4
2017-12-09T17:52:04.765Z,2.3
2017-12-09T17:53:06.369Z,2.3
2017-12-09T17:54:07.974Z,2.3
2017-12-09T17:55:09.578Z,2.2
2017-12-09T17:56:11.175Z,2.4
2017-12-09T17:57:12.780Z,2.2
2017-12-09T17:58:14.377Z,2.2
2017-12-09T17:59:15.986Z,2.4
2017-12-09T18:00:17.581Z,2.2
2017-12-09T18:01:19.180Z,2.4
2017-12-09T18:02:20.784Z,2.2
2017-12-09T18:03:22.389Z,2.2
2017-12-09T18:04:23.987Z,2.4
2017-12-09T18:05:25.588Z,2.2
2017-12-09T18:06:27.193Z,2.2
2017-12-09T18:07:28.796Z,2.2
2017-12-09T18:08:30.391Z,2.3
2017-12-09T18:09:31.996Z,2.2
2017-12-09T18:10:33.593Z,2.2
2017-12-09T18:11:35.194Z,2.2
2017-12-09T18:12:36.799Z,2.4
2017-12-09T18:13:38.406Z,2.3
2017-12-09T18:14:40.001Z,2.3
2017-12-09T18:15:41.598Z,2.1
2017-12-09T18:16:43.205Z,2.2
2017-12-09T18:17:44.804Z,2.1
2017-12-09T18:18:46.409Z,2.2
2017-12-09T18:19:48.010Z,2.3
2017-12-09T18:20:49.614Z,2.2
2017-12-09T18:21:51.212Z,2.2
2017-12-09T18:22:52.815Z,2.3
2017-12-09T18:23:54.420Z,2.2
2017-12-09T18:24:56.022Z,2.2
2017-12-09T18:25:57.624Z,2.3
2017-12-09T18:26:59.224Z,2.2
2017-12-09T18:28:00.824Z,2.2
2017-12-09T18:29:02.427Z,2.2
2017-12-09T18:30:04.037Z,2.2
2017-12-09T18:31:05.624Z,2.2
2017-12-09T18:32:07.220Z,2.2
2017-12-09T18:33:08.825Z,2.3
2017-12-09T18:34:10.428Z,2.1
2017-12-09T18:35:12.025Z,2.1
2017-12-09T18:36:13.629Z,2.2
2017-12-09T18:37:15.229Z,2.2
2017-12-09T18:38:16.832Z,2.3
2017-12-09T18:39:18.434Z,2.2
2017-12-09T18:40:20.039Z,2.2
2017-12-09T18:41:21.633Z,2.3
2017-12-09T18:42:23.234Z,2.2
2017-12-09T18:43:24.833Z,2.3
2017-12-09T18:44:26.430Z,2.2
2017-12-09T18:45:28.032Z,2.3
2017-12-09T18:46:29.626Z,2.2
2017-12-09T18:47:31.232Z,2.2
2017-12-09T18:48:32.827Z,2.2
2017-12-09T18:49:34.431Z,2.2
2017-12-09T18:50:36.032Z,2.2
2017-12-09T18:51:37.632Z,2.1
2017-12-09T18:52:39.227Z,2.2
2017-12-09T18:53:40.830Z,2.2
2017-12-09T18:54:42.431Z,2.1
2017-12-09T18:55:44.027Z,2.1
2017-12-09T18:56:45.630Z,2.0
2017-12-09T18:57:47.229Z,2.0
2017-12-09T18:58:48.824Z,2.1
2017-12-09T18:59:50.427Z,2.1
2017-12-09T19:00:52.022Z,2.1
2017-12-09T19:01:53.626Z,2.0
2017-12-09T19:02:55.224Z,2.0
2017-12-09T19:03:56.833Z,2.0
2017-12-09T19:04:58.426Z,1.9
2017-12-09T19:06:00.037Z,1.9
2017-12-09T19:07:01.624Z,2.0
2017-12-09T19:08:03.222Z,1.9
2017-12-09T19:09:04.825Z,2.0
2017-12-09T19:10:06.420Z,2.0
2017-12-09T19:11:08.021Z,2.0
2017-12-09T19:12:09.621Z,1.8
2017-12-09T19:13:11.218Z,1.8
2017-12-09T19:14:12.819Z,2.0
2017-12-09T19:15:14.418Z,1.8
2017-12-09T19:16:16.014Z,1.7
2017-12-09T19:17:17.619Z,1.8
2017-12-09T19:18:19.216Z,1.8
2017-12-09T19:19:20.815Z,1.7
2017-12-09T19:20:22.409Z,1.7
2017-12-09T19:21:24.024Z,1.8
2017-12-09T19:22:25.621Z,1.7
2017-12-09T19:23:27.217Z,1.7
2017-12-09T19:24:28.817Z,1.7
2017-12-09T19:25:30.423Z,1.7
2017-12-09T19:26:32.019Z,1.7
2017-12-09T19:27:33.664Z,1.7
2017-12-09T19:28:35.220Z,1.7
2017-12-09T19:29:36.817Z,1.7
2017-12-09T19:30:38.418Z,1.7
2017-12-09T19:31:40.036Z,1.7
2017-12-09T19:32:41.620Z,1.6
2017-12-09T19:33:43.219Z,1.6
2017-12-09T19:34:44.814Z,1.5
2017-12-09T19:35:46.412Z,1.7
2017-12-09T19:36:48.013Z,1.7
2017-12-09T19:37:49.612Z,1.7
2017-12-09T19:38:51.211Z,1.7
2017-12-09T19:39:52.810Z,1.7
2017-12-09T19:40:54.414Z,1.8
2017-12-09T19:41:56.008Z,1.7
2017-12-09T19:42:57.605Z,1.7
2017-12-09T19:43:59.204Z,1.7
2017-12-09T19:45:00.802Z,1.7
2017-12-09T19:46:02.401Z,1.7
2017-12-09T19:47:04.000Z,1.7
2017-12-09T19:48:05.603Z,1.7
2017-12-09T19:49:07.197Z,1.7
2017-12-09T19:50:08.796Z,1.7
2017-12-09T19:51:10.399Z,1.7
2017-12-09T19:52:12.002Z,1.7
2017-12-09T19:53:13.598Z,1.7
2017-12-09T19:54:15.198Z,1.6
2017-12-09T19:55:16.797Z,1.6
2017-12-09T19:56:18.392Z,1.7
2017-12-09T19:57:19.989Z,1.6
2017-12-09T19:58:21.591Z,1.6
2017-12-09T19:59:23.189Z,1.6
2017-12-09T20:00:24.791Z,1.5
2017-12-09T20:01:26.392Z,1.6
2017-12-09T20:02:27.989Z,1.6
2017-12-09T20:03:29.587Z,1.6
2017-12-09T20:04:31.183Z,1.6
2017-12-09T20:05:32.786Z,1.5
2017-12-09T20:06:34.383Z,1.5
2017-12-09T20:07:35.987Z,1.5
2017-12-09T20:08:37.584Z,1.7
2017-12-09T20:09:39.183Z,1.6
2017-12-09T20:10:40.781Z,1.6
2017-12-09T20:11:42.384Z,1.6
2017-12-09T20:12:43.983Z,1.5
2017-12-09T20:13:45.586Z,1.5
2017-12-09T20:14:47.183Z,1.5
2017-12-09T20:15:48.787Z,1.5
2017-12-09T20:16:50.380Z,1.6
2017-12-09T20:17:51.980Z,1.5
2017-12-09T20:18:53.580Z,1.6
2017-12-09T20:19:55.181Z,1.6
2017-12-09T20:20:56.787Z,1.5
2017-12-09T20:21:58.386Z,1.5
2017-12-09T20:22:59.992Z,1.6
2017-12-09T20:24:01.584Z,1.6
2017-12-09T20:25:03.191Z,1.5
2017-12-09T20:26:04.785Z,1.6
2017-12-09T20:27:06.388Z,1.5
2017-12-09T20:28:07.984Z,1.6
2017-12-09T20:29:09.584Z,1.6
2017-12-09T20:30:11.190Z,1.6
2017-12-09T20:31:12.787Z,1.6
2017-12-09T20:32:14.386Z,1.6
2017-12-09T20:33:15.978Z,1.7
2017-12-09T20:34:17.575Z,1.7
2017-12-09T20:35:19.180Z,1.7
2017-12-09T20:36:20.776Z,1.7
2017-12-09T20:37:22.377Z,1.7
2017-12-09T20:38:23.987Z,1.7
2017-12-09T20:39:25.576Z,1.7
2017-12-09T20:40:27.169Z,1.8
2017-12-09T20:41:28.767Z,1.7
2017-12-09T20:42:30.376Z,1.7
2017-12-09T20:43:31.972Z,1.7
2017-12-09T20:44:33.569Z,1.7
2017-12-09T20:45:35.174Z,1.8
2017-12-09T20:46:36.772Z,1.7
2017-12-09T20:47:38.368Z,1.7
2017-12-09T20:48:39.966Z,1.8
2017-12-09T20:49:41.567Z,1.7
2017-12-09T20:50:43.169Z,1.7
2017-12-09T20:51:44.766Z,1.8
2017-12-09T20:52:46.367Z,1.8
2017-12-09T20:53:47.979Z,1.8
2017-12-09T20:54:49.562Z,1.8
2017-12-09T20:55:51.163Z,1.8
2017-12-09T20:56:52.765Z,1.8
2017-12-09T20:57:54.369Z,1.8
2017-12-09T20:58:55.964Z,1.8
2017-12-09T20:59:57.561Z,1.8
2017-12-09T21:00:59.160Z,1.7
2017-12-09T21:02:00.756Z,1.7
2017-12-09T21:03:02.361Z,1.8
2017-12-09T21:04:03.959Z,1.8
2017-12-09T21:05:05.563Z,1.7
2017-12-09T21:06:07.161Z,1.8
2017-12-09T21:07:08.763Z,1.8
2017-12-09T21:08:10.358Z,1.8
2017-12-09T21:09:11.960Z,1.7
2017-12-09T21:10:13.564Z,1.8
2017-12-09T21:11:15.161Z,1.8
2017-12-09T21:12:16.765Z,1.7
2017-12-09T21:13:18.361Z,1.8
2017-12-09T21:14:19.965Z,1.8
2017-12-09T21:15:21.557Z,1.8
2017-12-09T21:16:23.159Z,1.7
2017-12-09T21:17:24.755Z,1.7
2017-12-09T21:18:26.359Z,1.7
2017-12-09T21:19:27.959Z,1.7
2017-12-09T21:20:29.558Z,1.7
2017-12-09T21:21:31.158Z,1.7
2017-12-09T21:22:32.756Z,1.7
2017-12-09T21:23:34.352Z,1.7
2017-12-09T21:24:35.949Z,1.7
2017-12-09T21:25:37.553Z,1.7
2017-12-09T21:26:39.148Z,1.7
2017-12-09T21:27:40.756Z,1.7
2017-12-09T21:28:42.352Z,1.7
2017-12-09T21:29:43.955Z,1.6
2017-12-09T21:30:45.552Z,1.7
2017-12-09T21:31:47.156Z,1.6
2017-12-09T21:32:48.752Z,1.6
2017-12-09T21:33:50.355Z,1.8
2017-12-09T21:34:51.956Z,1.7
2017-12-09T21:35:53.554Z,1.8
2017-12-09T21:36:55.152Z,1.9
2017-12-09T21:37:56.755Z,1.7
2017-12-09T21:38:58.354Z,1.8
2017-12-09T21:39:59.950Z,1.8
2017-12-09T21:41:01.551Z,1.8
2017-12-09T21:42:03.154Z,1.7
2017-12-09T21:43:04.752Z,1.8
2017-12-09T21:44:06.353Z,1.7
2017-12-09T21:45:07.955Z,1.8
2017-12-09T21:46:09.552Z,1.7
2017-12-09T21:47:11.149Z,1.8
2017-12-09T21:48:12.752Z,1.8
2017-12-09T21:49:14.354Z,1.8
2017-12-09T21:50:15.947Z,1.7
2017-12-09T21:51:17.547Z,1.8
2017-12-09T21:52:19.144Z,1.8
2017-12-09T21:53:20.746Z,1.8
2017-12-09T21:54:22.339Z,1.7
2017-12-09T21:55:23.944Z,1.7
2017-12-09T21:56:25.542Z,1.8
2017-12-09T21:57:27.143Z,1.8
2017-12-09T21:58:28.736Z,1.8
2017-12-09T21:59:30.343Z,1.8
2017-12-09T22:00:31.940Z,1.8
2017-12-09T22:01:33.539Z,1.8
2017-12-09T22:02:35.145Z,1.9
2017-12-09T22:03:36.748Z,1.7
2017-12-09T22:04:38.347Z,1.8
2017-12-09T22:05:39.944Z,1.9
2017-12-09T22:06:41.548Z,1.8
2017-12-09T22:07:43.149Z,1.8
2017-12-09T22:08:44.743Z,1.9
2017-12-09T22:09:46.347Z,1.8
2017-12-09T22:10:47.943Z,1.8
2017-12-09T22:11:49.545Z,1.9
2017-12-09T22:12:51.140Z,1.9
2017-12-09T22:13:52.742Z,1.9
2017-12-09T22:14:54.345Z,1.9
2017-12-09T22:15:55.944Z,2.0
2017-12-09T22:16:57.543Z,1.9
2017-12-09T22:17:59.147Z,2.0
2017-12-09T22:19:00.742Z,2.0
2017-12-09T22:20:02.348Z,2.0
2017-12-09T22:21:03.939Z,1.9
2017-12-09T22:22:05.541Z,2.0
2017-12-09T22:23:07.137Z,2.0
2017-12-09T22:24:08.737Z,2.0
2017-12-09T22:25:10.338Z,2.0
2017-12-09T22:26:11.934Z,2.0
2017-12-09T22:27:13.532Z,2.0
2017-12-09T22:28:15.128Z,2.0
2017-12-09T22:29:16.726Z,2.0
2017-12-09T22:30:18.324Z,2.0
2017-12-09T22:32:04.141Z,2.0
2017-12-09T22:33:05.755Z,2.1
2017-12-09T22:34:57.482Z,2.2
2017-12-09T22:35:59.080Z,2.2
2017-12-09T22:37:50.995Z,2.2
2017-12-09T22:38:52.876Z,2.2